Time;durP1;ratioP1;P1;durP2;ratioP2;P2;SDS_P1;SDS_P2;PMS_P1;PMS_P2;Temp;Humidity;BMP_temperature;BMP_pressure;BME280_temperature;BME280_humidity;BME280_pressure;Samples;Min_cycle;Max_cycle;Signal;HPM_P1;HPM_P2
2023/12/20 00:01:34;;;;;;;1.05;0.95;;;;;;;;;;5064879;28;20025;-87
2023/12/20 00:04:01;;;;;;;1.42;0.82;;;;;;;;;;5042646;28;20021;-85
2023/12/20 00:06:26;;;;;;;0.80;0.80;;;;;;;;;;5036565;28;20033;-87
2023/12/20 00:08:51;;;;;;;0.85;0.82;;;;;;;;;;5057704;28;20016;-86
2023/12/20 00:11:17;;;;;;;0.80;0.80;;;;;;;;;;5054856;28;20476;-85
2023/12/20 00:13:42;;;;;;;1.50;1.40;;;;;;;;;;5054111;28;20025;-86
2023/12/20 00:16:07;;;;;;;1.05;1.00;;;;;;;;;;5044846;28;20024;-86
2023/12/20 00:18:32;;;;;;;1.13;1.00;;;;;;;;;;5056177;28;20027;-87
2023/12/20 00:20:58;;;;;;;0.82;0.82;;;;;;;;;;5059612;28;20078;-87
2023/12/20 00:23:23;;;;;;;0.80;0.80;;;;;;;;;;5039751;28;20506;-87
2023/12/20 00:25:49;;;;;;;1.10;1.00;;;;;;;;;;5057733;28;20016;-87
2023/12/20 00:28:14;;;;;;;1.00;1.00;;;;;;;;;;5051758;28;20007;-88
2023/12/20 00:30:39;;;;;;;1.02;1.02;;;;;;;;;;5037138;28;20029;-89
2023/12/20 00:33:05;;;;;;;2.25;1.02;;;;;;;;;;5061467;28;20017;-87
2023/12/20 00:35:30;;;;;;;1.35;1.10;;;;;;;;;;5055437;28;20016;-88
2023/12/20 00:37:55;;;;;;;1.80;1.35;;;;;;;;;;5042857;28;20085;-87
2023/12/20 00:40:22;;;;;;;1.10;1.10;;;;;;;;;;5049932;28;20525;-88
2023/12/20 00:42:47;;;;;;;1.33;1.05;;;;;;;;;;5055979;28;20016;-87
2023/12/20 00:45:15;;;;;;;2.50;1.33;;;;;;;;;;5060894;28;20107;-88
2023/12/20 00:47:41;;;;;;;5.57;1.08;;;;;;;;;;5058043;28;20029;-89
2023/12/20 00:50:07;;;;;;;1.10;1.10;;;;;;;;;;5051304;28;20542;-88
2023/12/20 00:52:36;;;;;;;1.15;0.80;;;;;;;;;;5059538;28;20025;-89
2023/12/20 00:55:01;;;;;;;1.20;1.10;;;;;;;;;;5038494;28;20073;-89
2023/12/20 00:57:29;;;;;;;0.77;0.77;;;;;;;;;;5062403;28;20028;-88
2023/12/20 00:59:54;;;;;;;1.23;1.13;;;;;;;;;;5065242;28;20035;-89
2023/12/20 01:02:19;;;;;;;1.15;1.15;;;;;;;;;;5044912;28;20021;-88
2023/12/20 01:04:44;;;;;;;0.98;0.98;;;;;;;;;;5054559;28;20025;-89
2023/12/20 01:07:10;;;;;;;1.58;1.02;;;;;;;;;;5058306;28;20108;-89
2023/12/20 01:09:51;;;;;;;0.85;0.85;;;;;;;;;;5043634;28;20021;-88
2023/12/20 01:12:16;;;;;;;1.23;1.20;;;;;;;;;;5057710;28;20039;-88
2023/12/20 01:14:42;;;;;;;1.23;1.13;;;;;;;;;;5060627;28;20021;-89
2023/12/20 01:17:07;;;;;;;1.35;1.23;;;;;;;;;;5055514;28;20507;-89
2023/12/20 01:19:32;;;;;;;3.13;1.50;;;;;;;;;;5054718;28;20040;-87
2023/12/20 01:21:58;;;;;;;2.13;1.77;;;;;;;;;;5054138;28;20070;-88
2023/12/20 01:24:23;;;;;;;1.35;1.25;;;;;;;;;;5041938;28;20016;-88
2023/12/20 01:26:48;;;;;;;1.92;1.15;;;;;;;;;;5071822;28;20111;-89
2023/12/20 01:29:14;;;;;;;3.47;1.88;;;;;;;;;;5075059;28;20343;-88
2023/12/20 01:31:43;;;;;;;1.63;1.13;;;;;;;;;;5069498;28;20044;-89
2023/12/20 01:34:08;;;;;;;1.20;1.10;;;;;;;;;;5060305;28;20032;-88
2023/12/20 01:36:33;;;;;;;1.38;1.20;;;;;;;;;;5044498;28;20024;-88
2023/12/20 01:38:59;;;;;;;1.67;1.30;;;;;;;;;;5040676;28;20079;-89
2023/12/20 01:41:24;;;;;;;2.55;1.40;;;;;;;;;;5041966;28;20082;-88
2023/12/20 01:43:49;;;;;;;1.90;1.70;;;;;;;;;;5069421;28;20017;-89
2023/12/20 01:46:16;;;;;;;2.65;1.38;;;;;;;;;;5059192;28;20048;-89
2023/12/20 01:48:42;;;;;;;0.85;0.85;;;;;;;;;;5052425;28;20020;-88
2023/12/20 01:51:07;;;;;;;1.30;1.10;;;;;;;;;;5062566;28;20036;-88
2023/12/20 01:53:33;;;;;;;2.75;1.60;;;;;;;;;;5040858;28;20033;-89
2023/12/20 01:55:59;;;;;;;3.13;1.63;;;;;;;;;;5059464;28;20556;-89
2023/12/20 01:58:25;;;;;;;1.60;1.50;;;;;;;;;;5059564;28;20036;-88
2023/12/20 02:00:51;;;;;;;1.60;1.50;;;;;;;;;;5058605;28;20024;-88
2023/12/20 02:03:17;;;;;;;2.20;1.17;;;;;;;;;;5064373;28;20471;-87
2023/12/20 02:05:44;;;;;;;1.98;1.25;;;;;;;;;;5055653;28;20052;-87
2023/12/20 02:08:09;;;;;;;4.53;1.83;;;;;;;;;;5055357;28;20043;-88
2023/12/20 02:10:34;;;;;;;3.08;1.73;;;;;;;;;;5054797;28;20017;-87
2023/12/20 02:13:00;;;;;;;2.15;1.45;;;;;;;;;;5054942;28;20052;-87
2023/12/20 02:15:25;;;;;;;1.80;1.58;;;;;;;;;;5054959;28;20561;-87
2023/12/20 02:17:51;;;;;;;1.45;1.35;;;;;;;;;;5054272;28;20421;-88
2023/12/20 02:20:16;;;;;;;1.33;1.23;;;;;;;;;;5039510;28;20040;-86
2023/12/20 02:22:41;;;;;;;1.45;1.35;;;;;;;;;;5054690;28;20710;-87
2023/12/20 02:25:07;;;;;;;3.13;1.50;;;;;;;;;;5070302;28;20092;-86
2023/12/20 02:27:32;;;;;;;1.17;1.00;;;;;;;;;;5047658;28;20206;-88
2023/12/20 02:29:58;;;;;;;5.32;1.85;;;;;;;;;;5057478;28;20483;-88
2023/12/20 02:32:27;;;;;;;1.00;1.00;;;;;;;;;;5057307;28;20087;-88
2023/12/20 02:34:53;;;;;;;1.15;1.05;;;;;;;;;;5039508;28;20048;-90
2023/12/20 02:37:18;;;;;;;1.20;1.10;;;;;;;;;;5055375;28;20071;-88
2023/12/20 02:39:44;;;;;;;1.50;1.20;;;;;;;;;;5057898;28;20028;-88
2023/12/20 02:42:09;;;;;;;0.73;0.73;;;;;;;;;;5057341;28;20056;-87
2023/12/20 02:44:34;;;;;;;2.28;1.30;;;;;;;;;;5058229;28;20028;-89
2023/12/20 02:46:59;;;;;;;1.02;1.00;;;;;;;;;;5059166;28;20013;-88
2023/12/20 02:49:25;;;;;;;1.17;1.08;;;;;;;;;;5071828;28;20012;-89
2023/12/20 02:51:50;;;;;;;0.20;0.20;;;;;;;;;;5049848;28;20056;-89
2023/12/20 02:54:16;;;;;;;0.20;0.20;;;;;;;;;;5058802;28;20056;-89
2023/12/20 02:56:41;;;;;;;0.38;0.38;;;;;;;;;;5052747;28;20081;-89
2023/12/20 02:59:08;;;;;;;0.30;0.30;;;;;;;;;;5041415;28;20032;-89
2023/12/20 03:01:34;;;;;;;0.50;0.50;;;;;;;;;;5052496;28;20135;-89
2023/12/20 03:03:59;;;;;;;0.20;0.20;;;;;;;;;;5058080;28;20036;-89
2023/12/20 03:06:24;;;;;;;0.30;0.30;;;;;;;;;;5057197;28;20021;-88
2023/12/20 03:08:50;;;;;;;0.35;0.35;;;;;;;;;;5039181;28;20029;-88
2023/12/20 03:11:15;;;;;;;0.30;0.30;;;;;;;;;;5038760;28;20044;-89
2023/12/20 03:13:40;;;;;;;0.30;0.30;;;;;;;;;;5057287;28;20017;-88
2023/12/20 03:16:13;;;;;;;0.20;0.20;;;;;;;;;;5048154;28;20025;-88
2023/12/20 03:18:39;;;;;;;0.20;0.20;;;;;;;;;;5039094;28;20017;-88
2023/12/20 03:21:05;;;;;;;0.20;0.20;;;;;;;;;;5048597;28;20032;-87
2023/12/20 03:23:32;;;;;;;0.28;0.28;;;;;;;;;;5037615;28;20056;-87
2023/12/20 03:25:57;;;;;;;0.20;0.20;;;;;;;;;;5048532;28;20017;-88
2023/12/20 03:28:23;;;;;;;0.20;0.20;;;;;;;;;;5058248;28;20036;-86
2023/12/20 03:30:48;;;;;;;0.30;0.30;;;;;;;;;;5047456;28;20033;-89
2023/12/20 03:33:14;;;;;;;0.20;0.20;;;;;;;;;;5064072;28;20032;-90
2023/12/20 03:35:39;;;;;;;0.20;0.20;;;;;;;;;;5056937;28;20021;-88
2023/12/20 03:38:04;;;;;;;0.28;0.28;;;;;;;;;;5055573;28;20031;-89
2023/12/20 03:40:29;;;;;;;0.20;0.20;;;;;;;;;;5055468;28;20039;-88
2023/12/20 03:42:55;;;;;;;0.25;0.25;;;;;;;;;;5055723;28;20029;-89
2023/12/20 03:45:20;;;;;;;0.20;0.20;;;;;;;;;;5047193;28;20021;-88
2023/12/20 03:47:45;;;;;;;0.30;0.30;;;;;;;;;;5049886;28;20021;-88
2023/12/20 03:50:11;;;;;;;0.20;0.20;;;;;;;;;;5055230;28;20021;-87
2023/12/20 03:52:36;;;;;;;0.20;0.20;;;;;;;;;;5033053;28;20031;-86
2023/12/20 03:55:01;;;;;;;0.20;0.20;;;;;;;;;;5052761;28;20025;-86
2023/12/20 03:57:27;;;;;;;0.20;0.20;;;;;;;;;;5055353;28;20029;-87
2023/12/20 03:59:52;;;;;;;0.43;0.40;;;;;;;;;;5056422;28;20052;-87
2023/12/20 04:02:17;;;;;;;0.63;0.30;;;;;;;;;;5037983;28;20111;-87
2023/12/20 04:04:43;;;;;;;0.20;0.20;;;;;;;;;;5055505;28;20201;-88
2023/12/20 04:07:08;;;;;;;0.30;0.30;;;;;;;;;;5053573;28;20024;-87
2023/12/20 04:09:33;;;;;;;0.20;0.20;;;;;;;;;;5035291;28;20048;-86
2023/12/20 04:11:59;;;;;;;0.10;0.10;;;;;;;;;;5055891;28;20287;-87
2023/12/20 04:14:24;;;;;;;0.30;0.30;;;;;;;;;;5056271;28;20103;-88
2023/12/20 04:16:50;;;;;;;0.22;0.22;;;;;;;;;;5056248;28;20016;-88
2023/12/20 04:19:15;;;;;;;0.40;0.40;;;;;;;;;;5055690;28;20080;-88
2023/12/20 04:21:40;;;;;;;0.32;0.30;;;;;;;;;;5055799;28;20446;-86
2023/12/20 04:24:06;;;;;;;0.52;0.38;;;;;;;;;;5055243;28;20036;-86
2023/12/20 04:26:31;;;;;;;0.30;0.30;;;;;;;;;;5055044;28;20025;-86
2023/12/20 04:28:56;;;;;;;0.40;0.40;;;;;;;;;;5055500;28;20029;-87
2023/12/20 04:31:22;;;;;;;0.40;0.40;;;;;;;;;;5045549;28;20048;-86
2023/12/20 04:33:47;;;;;;;1.30;0.75;;;;;;;;;;5058821;28;20075;-87
2023/12/20 04:36:12;;;;;;;0.30;0.30;;;;;;;;;;5053233;28;20041;-87
2023/12/20 04:38:38;;;;;;;0.45;0.38;;;;;;;;;;5058840;28;20040;-87
2023/12/20 04:41:03;;;;;;;5.25;0.50;;;;;;;;;;5058078;28;20060;-86
2023/12/20 04:43:29;;;;;;;0.20;0.20;;;;;;;;;;5058607;28;20028;-87
2023/12/20 04:45:55;;;;;;;0.20;0.20;;;;;;;;;;5058277;28;20082;-86
2023/12/20 04:48:20;;;;;;;0.20;0.20;;;;;;;;;;5058480;28;20079;-86
2023/12/20 04:50:45;;;;;;;0.52;0.52;;;;;;;;;;5040923;28;20025;-87
2023/12/20 04:53:11;;;;;;;0.47;0.47;;;;;;;;;;5059539;28;20091;-87
2023/12/20 04:55:36;;;;;;;0.32;0.32;;;;;;;;;;5059296;28;20429;-86
2023/12/20 04:58:01;;;;;;;0.20;0.20;;;;;;;;;;5058840;28;20052;-86
2023/12/20 05:00:27;;;;;;;0.40;0.40;;;;;;;;;;5058025;28;20048;-87
2023/12/20 05:02:52;;;;;;;0.32;0.32;;;;;;;;;;5040482;28;20123;-87
2023/12/20 05:05:18;;;;;;;0.30;0.30;;;;;;;;;;5059357;28;20469;-87
2023/12/20 05:07:43;;;;;;;0.50;0.50;;;;;;;;;;5058796;28;20047;-87
2023/12/20 05:10:09;;;;;;;0.20;0.20;;;;;;;;;;5059237;28;20112;-86
2023/12/20 05:12:35;;;;;;;0.32;0.32;;;;;;;;;;5059048;28;20524;-87
2023/12/20 05:15:00;;;;;;;0.90;0.50;;;;;;;;;;5040259;28;20021;-86
2023/12/20 05:17:25;;;;;;;0.35;0.35;;;;;;;;;;5048137;28;20103;-86
2023/12/20 05:19:51;;;;;;;0.45;0.45;;;;;;;;;;5048112;28;20031;-87
2023/12/20 05:22:17;;;;;;;2.25;0.60;;;;;;;;;;5048661;28;20486;-87
2023/12/20 05:24:42;;;;;;;0.30;0.30;;;;;;;;;;5054843;28;20017;-87
2023/12/20 05:27:07;;;;;;;0.40;0.40;;;;;;;;;;5059388;28;20055;-86
2023/12/20 05:29:33;;;;;;;0.30;0.30;;;;;;;;;;5059246;28;20289;-86
2023/12/20 05:31:58;;;;;;;0.25;0.25;;;;;;;;;;5059929;28;20032;-87
2023/12/20 05:34:24;;;;;;;0.50;0.50;;;;;;;;;;5041281;28;20044;-87
2023/12/20 05:36:49;;;;;;;0.40;0.40;;;;;;;;;;5055998;28;20078;-85
2023/12/20 05:39:14;;;;;;;0.32;0.32;;;;;;;;;;5060077;28;20036;-86
2023/12/20 05:41:40;;;;;;;0.47;0.47;;;;;;;;;;5060487;28;20040;-85
2023/12/20 05:44:05;;;;;;;0.40;0.40;;;;;;;;;;5045646;28;20378;-87
2023/12/20 05:46:30;;;;;;;0.52;0.52;;;;;;;;;;5057650;28;20123;-88
2023/12/20 05:48:56;;;;;;;0.52;0.52;;;;;;;;;;5056782;28;20032;-88
2023/12/20 05:51:21;;;;;;;0.40;0.40;;;;;;;;;;5057151;28;20047;-87
2023/12/20 05:53:46;;;;;;;0.50;0.50;;;;;;;;;;5038494;28;20029;-87
2023/12/20 05:56:12;;;;;;;0.30;0.30;;;;;;;;;;5056826;28;20104;-87
2023/12/20 05:58:38;;;;;;;0.45;0.45;;;;;;;;;;5056541;28;20036;-88
2023/12/20 06:01:05;;;;;;;0.30;0.30;;;;;;;;;;5037665;28;20040;-88
2023/12/20 06:03:30;;;;;;;0.38;0.38;;;;;;;;;;5057780;28;20043;-87
2023/12/20 06:05:55;;;;;;;4.68;0.50;;;;;;;;;;5039422;28;20514;-88
2023/12/20 06:08:20;;;;;;;0.47;0.47;;;;;;;;;;5056717;28;20104;-88
2023/12/20 06:10:46;;;;;;;0.85;0.85;;;;;;;;;;5055975;28;20118;-87
2023/12/20 06:13:13;;;;;;;0.45;0.45;;;;;;;;;;5038404;28;20071;-87
2023/12/20 06:15:39;;;;;;;0.63;0.63;;;;;;;;;;5058711;28;20036;-87
2023/12/20 06:18:05;;;;;;;3.20;0.70;;;;;;;;;;5074525;28;20050;-88
2023/12/20 06:20:30;;;;;;;0.40;0.40;;;;;;;;;;5058580;28;20044;-88
2023/12/20 06:22:56;;;;;;;2.08;0.65;;;;;;;;;;5061541;28;20028;-87
2023/12/20 06:25:21;;;;;;;0.70;0.70;;;;;;;;;;5056889;28;20029;-87
2023/12/20 06:27:46;;;;;;;0.60;0.60;;;;;;;;;;5040346;28;20083;-87
2023/12/20 06:30:12;;;;;;;1.15;1.15;;;;;;;;;;5045692;28;20031;-88
2023/12/20 06:32:39;;;;;;;0.30;0.30;;;;;;;;;;5040411;28;20044;-88
2023/12/20 06:35:05;;;;;;;1.38;0.60;;;;;;;;;;5058573;28;20098;-87
2023/12/20 06:37:30;;;;;;;0.60;0.60;;;;;;;;;;5044002;28;20021;-88
2023/12/20 06:39:56;;;;;;;0.38;0.38;;;;;;;;;;5063546;28;20025;-88
2023/12/20 06:42:22;;;;;;;0.60;0.60;;;;;;;;;;5041446;28;20017;-87
2023/12/20 06:44:47;;;;;;;0.20;0.20;;;;;;;;;;5058804;28;20155;-89
2023/12/20 06:47:14;;;;;;;0.75;0.75;;;;;;;;;;5040309;28;20025;-88
2023/12/20 06:49:39;;;;;;;0.73;0.73;;;;;;;;;;5059041;28;20033;-88
2023/12/20 06:52:05;;;;;;;0.50;0.50;;;;;;;;;;5048170;28;20542;-88
2023/12/20 06:54:30;;;;;;;1.05;0.75;;;;;;;;;;5049662;28;20040;-87
2023/12/20 06:56:56;;;;;;;1.00;0.98;;;;;;;;;;5060058;28;20021;-89
2023/12/20 06:59:21;;;;;;;1.15;1.05;;;;;;;;;;5065826;28;20028;-87
2023/12/20 07:01:50;;;;;;;1.10;1.10;;;;;;;;;;5062507;28;20032;-87
2023/12/20 07:04:16;;;;;;;1.40;1.30;;;;;;;;;;5050595;28;20498;-88
2023/12/20 07:06:41;;;;;;;1.20;1.10;;;;;;;;;;5039191;28;20024;-87
2023/12/20 07:09:07;;;;;;;1.05;0.90;;;;;;;;;;5056689;28;20025;-87
2023/12/20 07:11:32;;;;;;;0.93;0.93;;;;;;;;;;5045426;28;20032;-87
2023/12/20 07:13:58;;;;;;;1.10;1.02;;;;;;;;;;5062345;28;20044;-85
2023/12/20 07:16:24;;;;;;;0.70;0.70;;;;;;;;;;5048763;28;20257;-86
2023/12/20 07:18:49;;;;;;;1.65;1.20;;;;;;;;;;5055145;28;20027;-86
2023/12/20 07:21:15;;;;;;;1.23;1.00;;;;;;;;;;5054986;28;20028;-85
2023/12/20 07:23:41;;;;;;;0.40;0.40;;;;;;;;;;5040289;28;20016;-86
2023/12/20 07:26:06;;;;;;;1.27;1.25;;;;;;;;;;5061495;28;20025;-86
2023/12/20 07:28:32;;;;;;;0.68;0.68;;;;;;;;;;5055631;28;20025;-86
2023/12/20 07:30:57;;;;;;;0.80;0.80;;;;;;;;;;5054788;28;20032;-86
2023/12/20 07:33:22;;;;;;;2.05;1.45;;;;;;;;;;5036457;28;20723;-85
2023/12/20 07:35:47;;;;;;;0.95;0.95;;;;;;;;;;5054048;28;20031;-88
2023/12/20 07:38:13;;;;;;;1.15;1.02;;;;;;;;;;5053228;28;20055;-85
2023/12/20 07:40:39;;;;;;;1.55;1.40;;;;;;;;;;5054070;28;20056;-84
2023/12/20 07:43:04;;;;;;;0.85;0.80;;;;;;;;;;5054396;28;20020;-85
2023/12/20 07:45:29;;;;;;;2.20;1.42;;;;;;;;;;5053954;28;20036;-88
2023/12/20 07:47:55;;;;;;;0.93;0.93;;;;;;;;;;5051078;28;20135;-87
2023/12/20 07:50:20;;;;;;;2.08;1.30;;;;;;;;;;5051676;28;20079;-87
2023/12/20 07:52:45;;;;;;;1.00;1.00;;;;;;;;;;5039595;28;20040;-87
2023/12/20 07:55:11;;;;;;;1.40;1.30;;;;;;;;;;5054150;28;20131;-88
2023/12/20 07:57:36;;;;;;;0.70;0.70;;;;;;;;;;5040518;28;20020;-87
2023/12/20 08:00:03;;;;;;;1.65;1.55;;;;;;;;;;5043137;28;20074;-87
2023/12/20 08:02:29;;;;;;;1.70;1.38;;;;;;;;;;5042171;28;20100;-86
2023/12/20 08:04:54;;;;;;;0.82;0.82;;;;;;;;;;5055052;28;20501;-86
2023/12/20 08:07:19;;;;;;;1.05;1.05;;;;;;;;;;5056899;28;20023;-87
2023/12/20 08:09:45;;;;;;;1.60;1.13;;;;;;;;;;5057604;28;20024;-86
2023/12/20 08:12:11;;;;;;;1.33;1.23;;;;;;;;;;5054187;28;20033;-86
2023/12/20 08:14:36;;;;;;;0.98;0.98;;;;;;;;;;5054969;28;20028;-86
2023/12/20 08:17:01;;;;;;;2.40;1.25;;;;;;;;;;5053422;28;20017;-86
2023/12/20 08:19:27;;;;;;;0.77;0.70;;;;;;;;;;5034026;28;20032;-86
2023/12/20 08:21:52;;;;;;;1.00;1.00;;;;;;;;;;5052630;28;20095;-87
2023/12/20 08:24:17;;;;;;;1.98;1.55;;;;;;;;;;5052468;28;20108;-86
2023/12/20 08:26:42;;;;;;;1.60;1.42;;;;;;;;;;5051271;28;20021;-86
2023/12/20 08:29:08;;;;;;;1.67;1.38;;;;;;;;;;5034004;28;20506;-87
2023/12/20 08:31:34;;;;;;;0.70;0.70;;;;;;;;;;5060450;28;20017;-88
2023/12/20 08:33:59;;;;;;;1.45;1.35;;;;;;;;;;5061680;28;20031;-87
2023/12/20 08:36:25;;;;;;;1.27;0.80;;;;;;;;;;5035277;28;20051;-86
2023/12/20 08:38:50;;;;;;;3.22;1.83;;;;;;;;;;5053781;28;20044;-87
2023/12/20 08:41:20;;;;;;;0.55;0.55;;;;;;;;;;5037579;28;20033;-87
2023/12/20 08:43:45;;;;;;;1.30;0.98;;;;;;;;;;5056353;28;20024;-87
2023/12/20 08:46:11;;;;;;;1.63;1.52;;;;;;;;;;5053193;28;20025;-86
2023/12/20 08:48:37;;;;;;;3.13;1.60;;;;;;;;;;5054418;28;20103;-86
2023/12/20 08:51:03;;;;;;;2.63;1.52;;;;;;;;;;5053669;28;20348;-87
2023/12/20 08:53:28;;;;;;;2.90;1.80;;;;;;;;;;5053784;28;20043;-86
2023/12/20 08:55:54;;;;;;;1.30;1.20;;;;;;;;;;5031173;28;20406;-86
2023/12/20 08:58:19;;;;;;;2.28;1.55;;;;;;;;;;5054671;28;20511;-86
2023/12/20 09:00:45;;;;;;;1.65;1.55;;;;;;;;;;5053574;28;20025;-86
2023/12/20 09:03:10;;;;;;;1.70;1.50;;;;;;;;;;5056509;28;20017;-86
2023/12/20 09:05:35;;;;;;;2.25;1.85;;;;;;;;;;5060516;28;20032;-87
2023/12/20 09:08:01;;;;;;;1.55;1.25;;;;;;;;;;5043272;28;20029;-87
2023/12/20 09:10:26;;;;;;;1.65;1.30;;;;;;;;;;5039792;28;20029;-87
2023/12/20 09:12:56;;;;;;;1.40;1.30;;;;;;;;;;5032471;28;20102;-87
2023/12/20 09:15:26;;;;;;;4.07;2.30;;;;;;;;;;5041380;28;20404;-87
2023/12/20 09:17:51;;;;;;;7.05;3.35;;;;;;;;;;5045992;28;20025;-88
2023/12/20 09:20:17;;;;;;;4.32;2.88;;;;;;;;;;5059158;28;20045;-85
2023/12/20 09:22:42;;;;;;;11.18;4.47;;;;;;;;;;5057862;28;20023;-86
2023/12/20 09:25:08;;;;;;;7.18;3.83;;;;;;;;;;5058575;28;20111;-87
2023/12/20 09:27:33;;;;;;;4.07;2.60;;;;;;;;;;5058217;28;20051;-85
2023/12/20 09:29:58;;;;;;;4.85;3.08;;;;;;;;;;5060915;28;20059;-87
2023/12/20 09:32:24;;;;;;;1.80;1.60;;;;;;;;;;5061440;28;20056;-86
2023/12/20 09:34:49;;;;;;;10.27;3.85;;;;;;;;;;5056949;28;20024;-86
2023/12/20 09:37:14;;;;;;;8.38;3.17;;;;;;;;;;5058288;28;20033;-87
2023/12/20 09:39:40;;;;;;;5.32;3.22;;;;;;;;;;5059361;28;20072;-87
2023/12/20 09:42:06;;;;;;;5.53;2.50;;;;;;;;;;5040339;28;20363;-87
2023/12/20 09:44:36;;;;;;;4.20;1.90;;;;;;;;;;5060334;28;20035;-85
2023/12/20 09:47:03;;;;;;;4.85;2.70;;;;;;;;;;5062510;28;20032;-87
2023/12/20 09:49:30;;;;;;;1.73;1.50;;;;;;;;;;5059989;28;20025;-85
2023/12/20 09:51:56;;;;;;;3.72;1.77;;;;;;;;;;5058946;28;20112;-87
2023/12/20 09:54:23;;;;;;;4.22;1.90;;;;;;;;;;5058385;28;20079;-87
2023/12/20 09:56:49;;;;;;;2.85;1.58;;;;;;;;;;5050137;28;20075;-86
2023/12/20 09:59:14;;;;;;;4.90;1.67;;;;;;;;;;5058813;28;20428;-88
2023/12/20 10:01:40;;;;;;;0.50;0.50;;;;;;;;;;5040307;28;20029;-89
2023/12/20 10:04:09;;;;;;;8.25;3.20;;;;;;;;;;5041483;28;20025;-84
2023/12/20 10:06:52;;;;;;;9.13;2.72;;;;;;;;;;5042650;28;20036;-86
2023/12/20 10:09:17;;;;;;;13.45;6.20;;;;;;;;;;5044541;28;20441;-87
2023/12/20 10:11:43;;;;;;;6.68;2.60;;;;;;;;;;5060998;28;20029;-89
2023/12/20 10:14:10;;;;;;;3.30;2.00;;;;;;;;;;5041582;28;20092;-87
2023/12/20 10:16:36;;;;;;;10.63;2.40;;;;;;;;;;5054733;28;20056;-89
2023/12/20 10:19:02;;;;;;;10.68;4.40;;;;;;;;;;5047075;28;20049;-84
2023/12/20 10:21:27;;;;;;;3.13;2.10;;;;;;;;;;5058929;28;20061;-86
2023/12/20 10:23:57;;;;;;;1.55;1.33;;;;;;;;;;5058111;28;20025;-85
2023/12/20 10:26:24;;;;;;;2.88;1.70;;;;;;;;;;5062071;28;20028;-86
2023/12/20 10:28:52;;;;;;;2.30;1.70;;;;;;;;;;5060610;28;20482;-88
2023/12/20 10:31:32;;;;;;;4.15;1.85;;;;;;;;;;5037349;28;20116;-85
2023/12/20 10:33:59;;;;;;;4.57;1.38;;;;;;;;;;5037416;28;20053;-86
2023/12/20 10:36:29;;;;;;;1.48;1.35;;;;;;;;;;5048483;28;20605;-85
2023/12/20 10:38:57;;;;;;;5.82;1.75;;;;;;;;;;5056316;28;20507;-85
2023/12/20 10:41:28;;;;;;;1.85;1.67;;;;;;;;;;5057101;28;20043;-87
2023/12/20 10:43:58;;;;;;;2.70;1.73;;;;;;;;;;5039403;28;20025;-86
2023/12/20 10:46:26;;;;;;;0.88;0.88;;;;;;;;;;5057045;28;20044;-85
2023/12/20 10:48:53;;;;;;;7.35;1.42;;;;;;;;;;5065111;28;20471;-86
2023/12/20 10:51:20;;;;;;;0.90;0.90;;;;;;;;;;5058082;28;20039;-85
2023/12/20 10:53:48;;;;;;;1.27;1.13;;;;;;;;;;5039625;28;20055;-87
2023/12/20 10:56:19;;;;;;;2.58;1.35;;;;;;;;;;5056640;28;20039;-85
2023/12/20 10:58:46;;;;;;;3.53;1.17;;;;;;;;;;5057571;28;20028;-85
2023/12/20 11:01:14;;;;;;;1.23;1.13;;;;;;;;;;5058110;28;20025;-85
2023/12/20 11:03:45;;;;;;;3.03;0.90;;;;;;;;;;5056957;28;20029;-86
2023/12/20 11:06:18;;;;;;;1.60;0.80;;;;;;;;;;5056891;28;20028;-85
2023/12/20 11:08:55;;;;;;;4.85;1.60;;;;;;;;;;5037713;28;20568;-84
2023/12/20 11:11:37;;;;;;;1.17;1.08;;;;;;;;;;5055878;28;20025;-87
2023/12/20 11:14:11;;;;;;;1.70;1.10;;;;;;;;;;5038198;28;20036;-86
2023/12/20 11:16:37;;;;;;;1.48;0.98;;;;;;;;;;5042515;28;20024;-85
2023/12/20 11:19:05;;;;;;;5.38;1.15;;;;;;;;;;5055532;28;20035;-85
2023/12/20 11:21:31;;;;;;;1.77;1.15;;;;;;;;;;5036926;28;20067;-86
2023/12/20 11:23:56;;;;;;;4.75;1.17;;;;;;;;;;5037832;28;20624;-86
2023/12/20 11:26:28;;;;;;;1.10;1.00;;;;;;;;;;5054704;28;20025;-86
2023/12/20 11:28:54;;;;;;;1.58;0.90;;;;;;;;;;5037454;28;20479;-87
2023/12/20 11:31:19;;;;;;;0.57;0.50;;;;;;;;;;5056469;28;20025;-87
2023/12/20 11:33:56;;;;;;;3.35;1.50;;;;;;;;;;5037424;28;20020;-87
2023/12/20 11:36:25;;;;;;;3.50;1.42;;;;;;;;;;5057696;28;20024;-86
2023/12/20 11:38:56;;;;;;;2.97;1.40;;;;;;;;;;5054388;28;20025;-86
2023/12/20 11:41:24;;;;;;;3.58;1.52;;;;;;;;;;5054597;28;20071;-86
2023/12/20 11:43:53;;;;;;;1.95;0.70;;;;;;;;;;5055177;28;20017;-86
2023/12/20 11:46:18;;;;;;;3.28;1.48;;;;;;;;;;5055187;28;20036;-85
2023/12/20 11:48:44;;;;;;;1.30;0.98;;;;;;;;;;5055561;28;20032;-84
2023/12/20 11:51:13;;;;;;;3.58;1.80;;;;;;;;;;5055426;28;20029;-85
2023/12/20 11:53:44;;;;;;;7.47;1.45;;;;;;;;;;5055799;28;20021;-84
2023/12/20 11:56:10;;;;;;;2.25;0.95;;;;;;;;;;5037363;28;20024;-85
2023/12/20 11:58:36;;;;;;;0.75;0.70;;;;;;;;;;5037595;28;20063;-86
2023/12/20 12:01:04;;;;;;;1.25;1.00;;;;;;;;;;5055016;28;20028;-84
2023/12/20 12:03:30;;;;;;;3.30;1.33;;;;;;;;;;5055810;28;20107;-85
2023/12/20 12:06:02;;;;;;;1.25;1.15;;;;;;;;;;5052910;28;20033;-89
2023/12/20 12:08:28;;;;;;;1.70;1.35;;;;;;;;;;5050034;28;20024;-88
2023/12/20 12:10:56;;;;;;;4.78;1.25;;;;;;;;;;5068372;28;20119;-86
2023/12/20 12:13:22;;;;;;;0.60;0.60;;;;;;;;;;5038622;28;20024;-85
2023/12/20 12:15:48;;;;;;;1.73;1.23;;;;;;;;;;5055966;28;20044;-87
2023/12/20 12:18:17;;;;;;;1.27;1.17;;;;;;;;;;5037542;28;20394;-87
2023/12/20 12:20:42;;;;;;;2.10;1.30;;;;;;;;;;5055162;28;20029;-86
2023/12/20 12:23:08;;;;;;;2.08;0.93;;;;;;;;;;5057336;28;20441;-85
2023/12/20 12:25:37;;;;;;;1.08;0.93;;;;;;;;;;5055024;28;20427;-84
2023/12/20 12:28:03;;;;;;;3.78;1.33;;;;;;;;;;5055516;28;20021;-87
2023/12/20 12:30:29;;;;;;;7.65;2.58;;;;;;;;;;5038375;28;20052;-85
2023/12/20 12:32:56;;;;;;;4.95;1.70;;;;;;;;;;5057014;28;20291;-86
2023/12/20 12:35:30;;;;;;;4.05;1.92;;;;;;;;;;5053459;28;20041;-88
2023/12/20 12:38:03;;;;;;;2.20;1.58;;;;;;;;;;5047949;28;20033;-87
2023/12/20 12:40:28;;;;;;;3.92;1.20;;;;;;;;;;5058881;28;20029;-87
2023/12/20 12:42:56;;;;;;;0.85;0.82;;;;;;;;;;5038583;28;20025;-86
2023/12/20 12:45:22;;;;;;;1.25;0.85;;;;;;;;;;5056416;28;20574;-86
2023/12/20 12:47:47;;;;;;;5.00;1.65;;;;;;;;;;5057520;28;20078;-87
2023/12/20 12:50:13;;;;;;;1.15;0.88;;;;;;;;;;5056871;28;20107;-87
2023/12/20 12:52:38;;;;;;;2.03;1.58;;;;;;;;;;5055833;28;20048;-86
2023/12/20 12:55:07;;;;;;;3.03;2.05;;;;;;;;;;5059433;28;20383;-88
2023/12/20 12:57:33;;;;;;;6.32;2.00;;;;;;;;;;5041885;28;20020;-86
2023/12/20 12:59:58;;;;;;;2.20;1.60;;;;;;;;;;5046562;28;20025;-86
2023/12/20 13:02:24;;;;;;;1.98;1.13;;;;;;;;;;5065228;28;20023;-86
2023/12/20 13:04:49;;;;;;;2.75;1.52;;;;;;;;;;5061680;28;20032;-85
2023/12/20 13:07:14;;;;;;;2.30;1.50;;;;;;;;;;5062331;28;20029;-86
2023/12/20 13:09:40;;;;;;;8.90;1.65;;;;;;;;;;5061227;28;20029;-84
2023/12/20 13:12:06;;;;;;;2.80;1.27;;;;;;;;;;5062012;28;20035;-86
2023/12/20 13:14:36;;;;;;;2.88;0.80;;;;;;;;;;5040638;28;20029;-86
2023/12/20 13:17:03;;;;;;;1.13;1.05;;;;;;;;;;5058532;28;20025;-85
2023/12/20 13:19:37;;;;;;;0.30;0.30;;;;;;;;;;5061285;28;20027;-87
2023/12/20 13:22:03;;;;;;;1.63;1.05;;;;;;;;;;5068254;28;20039;-85
2023/12/20 13:24:29;;;;;;;0.85;0.73;;;;;;;;;;5045562;28;20037;-87
2023/12/20 13:26:55;;;;;;;2.42;0.90;;;;;;;;;;5060280;28;20382;-87
2023/12/20 13:29:20;;;;;;;4.68;1.20;;;;;;;;;;5063864;28;20374;-85
2023/12/20 13:31:45;;;;;;;1.05;0.95;;;;;;;;;;5055400;28;20073;-86
2023/12/20 13:34:11;;;;;;;1.13;1.13;;;;;;;;;;5042484;28;20033;-87
2023/12/20 13:36:36;;;;;;;1.27;0.80;;;;;;;;;;5040457;28;20079;-85
2023/12/20 13:39:04;;;;;;;0.38;0.38;;;;;;;;;;5060658;28;20121;-87
2023/12/20 13:41:30;;;;;;;0.40;0.40;;;;;;;;;;5057829;28;20052;-86
2023/12/20 13:43:55;;;;;;;2.58;0.82;;;;;;;;;;5064208;28;20025;-86
2023/12/20 13:46:21;;;;;;;0.77;0.57;;;;;;;;;;5066082;28;20020;-86
2023/12/20 13:48:46;;;;;;;0.50;0.50;;;;;;;;;;5053896;28;20047;-86
2023/12/20 13:51:12;;;;;;;3.08;1.00;;;;;;;;;;5059221;28;20024;-87
2023/12/20 13:53:38;;;;;;;1.70;0.75;;;;;;;;;;5063294;28;20092;-84
2023/12/20 13:56:04;;;;;;;2.03;0.88;;;;;;;;;;5045991;28;20021;-84
2023/12/20 13:58:29;;;;;;;1.30;0.55;;;;;;;;;;5053652;28;20032;-85
2023/12/20 14:00:55;;;;;;;0.70;0.70;;;;;;;;;;5044635;28;20226;-86
2023/12/20 14:03:20;;;;;;;0.70;0.70;;;;;;;;;;5057491;28;20024;-86
2023/12/20 14:05:46;;;;;;;1.48;0.90;;;;;;;;;;5056004;28;20387;-84
2023/12/20 14:08:11;;;;;;;0.60;0.60;;;;;;;;;;5056965;28;20017;-84
2023/12/20 14:10:36;;;;;;;1.13;0.93;;;;;;;;;;5059308;28;20027;-85
2023/12/20 14:13:02;;;;;;;0.70;0.70;;;;;;;;;;5056528;28;20035;-83
2023/12/20 14:15:27;;;;;;;4.40;1.13;;;;;;;;;;5057131;28;20094;-84
2023/12/20 14:18:06;;;;;;;2.42;0.93;;;;;;;;;;5046461;28;20013;-83
2023/12/20 14:20:32;;;;;;;0.82;0.82;;;;;;;;;;5070531;28;20040;-88
2023/12/20 14:22:57;;;;;;;2.25;0.93;;;;;;;;;;5057923;28;20032;-85
2023/12/20 14:25:23;;;;;;;0.70;0.70;;;;;;;;;;5056924;28;20035;-86
2023/12/20 14:27:48;;;;;;;2.10;1.17;;;;;;;;;;5054733;28;20024;-85
2023/12/20 14:30:14;;;;;;;1.00;0.65;;;;;;;;;;5060711;28;20021;-85
2023/12/20 14:32:39;;;;;;;1.75;0.90;;;;;;;;;;5065274;28;20036;-87
2023/12/20 14:35:06;;;;;;;2.45;1.38;;;;;;;;;;5041901;28;20071;-85
2023/12/20 14:37:32;;;;;;;2.47;1.20;;;;;;;;;;5060055;28;20024;-87